Time;durP1;ratioP1;P1;durP2;ratioP2;P2;SDS_P1;SDS_P2;PMS_P1;PMS_P2;Temp;Humidity;BMP_temperature;BMP_pressure;BME280_temperature;BME280_humidity;BME280_pressure;Samples;Min_cycle;Max_cycle;Signal;HPM_P1;HPM_P2
2021/03/03 00:02:04;;;;;;;6.25;3.72;;;;;;;;;;5027903;27;108634;-57
2021/03/03 00:04:29;;;;;;;6.57;4.05;;;;;;;;;;5025588;27;105924;-57
2021/03/03 00:06:54;;;;;;;5.72;3.85;;;;;;;;;;5025770;27;105001;-57
2021/03/03 00:09:20;;;;;;;6.18;3.90;;;;;;;;;;5024149;27;104953;-56
2021/03/03 00:11:45;;;;;;;6.72;3.85;;;;;;;;;;5028413;27;105895;-57
2021/03/03 00:14:11;;;;;;;5.68;3.70;;;;;;;;;;5026424;27;105001;-58
2021/03/03 00:16:36;;;;;;;6.90;3.95;;;;;;;;;;5026402;27;105783;-56
2021/03/03 00:19:02;;;;;;;6.25;3.78;;;;;;;;;;5029297;27;105037;-56
2021/03/03 00:21:28;;;;;;;7.15;3.97;;;;;;;;;;5008953;27;105723;-56
2021/03/03 00:23:53;;;;;;;7.88;4.43;;;;;;;;;;5023764;27;105858;-56
2021/03/03 00:26:19;;;;;;;7.32;4.18;;;;;;;;;;5024629;27;105072;-55
2021/03/03 00:28:46;;;;;;;6.88;4.18;;;;;;;;;;5025726;27;105175;-54
2021/03/03 00:31:12;;;;;;;6.40;4.05;;;;;;;;;;5025946;27;105922;-55
2021/03/03 00:33:37;;;;;;;6.88;4.05;;;;;;;;;;5030930;27;105063;-56
2021/03/03 00:36:03;;;;;;;6.65;4.10;;;;;;;;;;5026319;27;105985;-55
2021/03/03 00:38:28;;;;;;;6.38;3.90;;;;;;;;;;5024269;27;105673;-57
2021/03/03 00:40:54;;;;;;;6.45;3.60;;;;;;;;;;5027870;27;105774;-57
2021/03/03 00:43:19;;;;;;;6.13;3.70;;;;;;;;;;5028254;27;107373;-56
2021/03/03 00:45:45;;;;;;;6.15;3.60;;;;;;;;;;5028505;27;105001;-56
2021/03/03 00:48:10;;;;;;;7.38;4.20;;;;;;;;;;5023969;27;106009;-58
2021/03/03 00:50:36;;;;;;;5.68;3.80;;;;;;;;;;5035009;27;105563;-57
2021/03/03 00:53:02;;;;;;;6.80;3.95;;;;;;;;;;5028293;27;105834;-58
2021/03/03 00:55:28;;;;;;;7.13;3.95;;;;;;;;;;5044625;27;108562;-56
2021/03/03 00:57:56;;;;;;;4.88;3.42;;;;;;;;;;5035468;27;105292;-57
2021/03/03 01:00:22;;;;;;;6.22;3.65;;;;;;;;;;5025402;27;108161;-55
2021/03/03 01:02:51;;;;;;;5.47;3.60;;;;;;;;;;5026123;27;105868;-56
2021/03/03 01:05:16;;;;;;;5.93;3.63;;;;;;;;;;5027627;27;105227;-57
2021/03/03 01:07:45;;;;;;;5.60;3.47;;;;;;;;;;5013459;27;105888;-56
2021/03/03 01:10:11;;;;;;;5.65;3.70;;;;;;;;;;5027986;27;108146;-57
2021/03/03 01:12:38;;;;;;;4.90;3.20;;;;;;;;;;5017116;27;105021;-56
2021/03/03 01:15:06;;;;;;;5.43;3.55;;;;;;;;;;5013478;27;107170;-56
2021/03/03 01:17:33;;;;;;;6.20;3.63;;;;;;;;;;5019999;27;108756;-57
2021/03/03 01:19:59;;;;;;;5.30;3.50;;;;;;;;;;5025392;27;105050;-57
2021/03/03 01:22:24;;;;;;;5.05;3.40;;;;;;;;;;5025581;27;105415;-56
2021/03/03 01:24:51;;;;;;;5.82;3.63;;;;;;;;;;5028067;27;106411;-57
2021/03/03 01:27:17;;;;;;;5.85;3.80;;;;;;;;;;5028705;27;106939;-60
2021/03/03 01:29:42;;;;;;;5.70;3.65;;;;;;;;;;5007147;27;105062;-56
2021/03/03 01:32:07;;;;;;;5.90;3.67;;;;;;;;;;5030136;27;105885;-57
2021/03/03 01:34:33;;;;;;;5.78;3.80;;;;;;;;;;5027486;27;105928;-56
2021/03/03 01:36:58;;;;;;;5.65;3.40;;;;;;;;;;5006049;27;106633;-57
2021/03/03 01:39:24;;;;;;;5.28;3.40;;;;;;;;;;5027871;27;105326;-57
2021/03/03 01:41:49;;;;;;;5.38;3.50;;;;;;;;;;5028236;27;105770;-56
2021/03/03 01:44:15;;;;;;;5.68;3.65;;;;;;;;;;5031083;27;105037;-56
2021/03/03 01:46:40;;;;;;;6.68;4.10;;;;;;;;;;5027726;27;105646;-57
2021/03/03 01:49:06;;;;;;;5.82;3.50;;;;;;;;;;5032740;27;106139;-56
2021/03/03 01:51:31;;;;;;;5.03;3.30;;;;;;;;;;5029639;27;105119;-56
2021/03/03 01:53:56;;;;;;;5.85;3.63;;;;;;;;;;5037788;27;105456;-56
2021/03/03 01:56:22;;;;;;;5.43;3.40;;;;;;;;;;5014275;27;109556;-57
2021/03/03 01:58:47;;;;;;;4.80;3.22;;;;;;;;;;5019937;27;105788;-56
2021/03/03 02:01:13;;;;;;;5.05;3.40;;;;;;;;;;5029545;27;106108;-57
2021/03/03 02:03:39;;;;;;;5.93;3.60;;;;;;;;;;5019138;27;105143;-56
2021/03/03 02:06:19;;;;;;;5.32;3.75;;;;;;;;;;5044770;27;105732;-56
2021/03/03 02:08:50;;;;;;;5.53;3.50;;;;;;;;;;5027116;27;105420;-57
2021/03/03 02:11:25;;;;;;;5.43;3.30;;;;;;;;;;5012948;27;105097;-56
2021/03/03 02:13:54;;;;;;;5.65;3.55;;;;;;;;;;5023246;27;105048;-56
2021/03/03 02:16:20;;;;;;;5.55;3.67;;;;;;;;;;5009630;27;105821;-57
2021/03/03 02:18:45;;;;;;;5.38;3.70;;;;;;;;;;5011815;27;105559;-56
2021/03/03 02:21:28;;;;;;;5.40;3.33;;;;;;;;;;5030409;27;105311;-56
2021/03/03 02:23:57;;;;;;;5.22;3.10;;;;;;;;;;5021094;27;104946;-57
2021/03/03 02:26:23;;;;;;;5.55;3.45;;;;;;;;;;5010076;27;106312;-56
2021/03/03 02:28:49;;;;;;;6.32;3.80;;;;;;;;;;5010769;27;105144;-56
2021/03/03 02:31:14;;;;;;;6.07;3.70;;;;;;;;;;5009452;27;105147;-57
2021/03/03 02:33:41;;;;;;;6.05;3.50;;;;;;;;;;5027713;27;105743;-57
2021/03/03 02:36:07;;;;;;;6.28;3.65;;;;;;;;;;5026814;27;105974;-57
2021/03/03 02:38:32;;;;;;;5.22;3.55;;;;;;;;;;5026820;27;105346;-56
2021/03/03 02:40:58;;;;;;;5.70;3.63;;;;;;;;;;5009620;27;106063;-56
2021/03/03 02:43:23;;;;;;;5.95;3.90;;;;;;;;;;5011957;27;109001;-56
2021/03/03 02:45:49;;;;;;;5.90;3.95;;;;;;;;;;4982294;27;107398;-56
2021/03/03 02:48:15;;;;;;;6.80;4.13;;;;;;;;;;5026765;27;105763;-56
2021/03/03 02:50:41;;;;;;;5.35;3.78;;;;;;;;;;5018684;27;105836;-57
2021/03/03 02:53:07;;;;;;;6.47;3.95;;;;;;;;;;5027313;27;105684;-56
2021/03/03 02:55:33;;;;;;;6.28;3.97;;;;;;;;;;5026205;27;105190;-56
2021/03/03 02:57:59;;;;;;;5.15;3.25;;;;;;;;;;5028551;27;106269;-57
2021/03/03 03:00:30;;;;;;;7.07;3.95;;;;;;;;;;5010535;27;105841;-56
2021/03/03 03:03:02;;;;;;;5.15;3.40;;;;;;;;;;5006490;27;106924;-56
2021/03/03 03:05:28;;;;;;;7.05;4.00;;;;;;;;;;5030377;27;105457;-56
2021/03/03 03:07:54;;;;;;;7.03;4.20;;;;;;;;;;5008577;27;105800;-56
2021/03/03 03:10:19;;;;;;;6.43;3.83;;;;;;;;;;5007773;27;105641;-57
2021/03/03 03:12:47;;;;;;;6.50;3.92;;;;;;;;;;5007717;27;121203;-56
2021/03/03 03:15:14;;;;;;;5.38;3.75;;;;;;;;;;5007649;27;105449;-56
2021/03/03 03:17:39;;;;;;;5.75;3.70;;;;;;;;;;5008913;27;105189;-56
2021/03/03 03:20:05;;;;;;;6.30;3.65;;;;;;;;;;5025073;27;112338;-57
2021/03/03 03:22:32;;;;;;;6.10;3.63;;;;;;;;;;5026539;27;105805;-56
2021/03/03 03:24:57;;;;;;;6.15;3.78;;;;;;;;;;5026164;27;105354;-56
2021/03/03 03:27:24;;;;;;;7.03;4.10;;;;;;;;;;5033075;27;105453;-56
2021/03/03 03:29:49;;;;;;;6.43;4.00;;;;;;;;;;5026686;27;105665;-56
2021/03/03 03:32:15;;;;;;;6.25;3.72;;;;;;;;;;5007843;27;105353;-56
2021/03/03 03:34:40;;;;;;;6.70;3.70;;;;;;;;;;5024939;27;109360;-56
2021/03/03 03:37:06;;;;;;;7.57;3.72;;;;;;;;;;5008334;27;106717;-56
2021/03/03 03:39:31;;;;;;;5.65;3.55;;;;;;;;;;5035040;27;106550;-56
2021/03/03 03:41:57;;;;;;;6.60;3.80;;;;;;;;;;5036075;27;111034;-56
2021/03/03 03:44:22;;;;;;;5.50;3.60;;;;;;;;;;5019781;27;105512;-57
2021/03/03 03:46:47;;;;;;;6.40;3.65;;;;;;;;;;5029143;27;105800;-57
2021/03/03 03:49:13;;;;;;;6.28;3.88;;;;;;;;;;5022893;27;104976;-56
2021/03/03 03:51:40;;;;;;;5.45;3.55;;;;;;;;;;5024059;27;105355;-56
2021/03/03 03:54:05;;;;;;;5.53;3.53;;;;;;;;;;5025462;27;105798;-57
2021/03/03 03:56:31;;;;;;;5.78;3.50;;;;;;;;;;5006356;27;105432;-56
2021/03/03 03:58:56;;;;;;;6.25;3.63;;;;;;;;;;5027527;27;113406;-56
2021/03/03 04:01:22;;;;;;;6.07;3.60;;;;;;;;;;5023825;27;105826;-56
2021/03/03 04:03:47;;;;;;;7.43;3.80;;;;;;;;;;5027517;27;105516;-57
2021/03/03 04:06:13;;;;;;;5.60;3.60;;;;;;;;;;5026955;27;107020;-56
2021/03/03 04:08:38;;;;;;;5.15;3.47;;;;;;;;;;5032064;27;106519;-58
2021/03/03 04:11:03;;;;;;;5.75;3.63;;;;;;;;;;5025075;27;106147;-55
2021/03/03 04:13:29;;;;;;;6.93;3.85;;;;;;;;;;5024721;27;115624;-56
2021/03/03 04:15:54;;;;;;;5.35;3.65;;;;;;;;;;5026513;27;105362;-56
2021/03/03 04:18:20;;;;;;;6.20;3.70;;;;;;;;;;5024980;27;105771;-56
2021/03/03 04:20:45;;;;;;;5.50;3.55;;;;;;;;;;5026283;27;105884;-55
2021/03/03 04:23:11;;;;;;;5.18;3.50;;;;;;;;;;5025054;27;105140;-56
2021/03/03 04:25:36;;;;;;;5.90;3.60;;;;;;;;;;5027799;27;105806;-56
2021/03/03 04:28:05;;;;;;;6.00;3.53;;;;;;;;;;5024321;27;105170;-57
2021/03/03 04:30:31;;;;;;;5.80;3.85;;;;;;;;;;5029431;27;104940;-56
2021/03/03 04:32:56;;;;;;;6.43;3.75;;;;;;;;;;5025807;27;105282;-55
2021/03/03 04:35:22;;;;;;;5.10;3.40;;;;;;;;;;5024818;27;105149;-57
2021/03/03 04:37:47;;;;;;;5.05;3.40;;;;;;;;;;5028333;27;105082;-56
2021/03/03 04:40:13;;;;;;;5.43;3.38;;;;;;;;;;5021324;27;105853;-56
2021/03/03 04:42:38;;;;;;;6.75;3.85;;;;;;;;;;5024233;27;105548;-56
2021/03/03 04:45:05;;;;;;;6.32;3.90;;;;;;;;;;5025335;27;105497;-57
2021/03/03 04:47:31;;;;;;;6.50;3.70;;;;;;;;;;5026824;27;106173;-58
2021/03/03 04:49:56;;;;;;;5.82;3.50;;;;;;;;;;5025754;27;104980;-57
2021/03/03 04:52:22;;;;;;;4.70;3.45;;;;;;;;;;5009584;27;116170;-56
2021/03/03 04:54:47;;;;;;;4.57;3.05;;;;;;;;;;5028307;27;105273;-57
2021/03/03 04:57:12;;;;;;;5.75;3.60;;;;;;;;;;5026409;27;105137;-56
2021/03/03 04:59:38;;;;;;;5.13;3.35;;;;;;;;;;5025306;27;107763;-56
2021/03/03 05:02:03;;;;;;;6.03;3.65;;;;;;;;;;5021510;27;105522;-57
2021/03/03 05:04:29;;;;;;;4.70;3.30;;;;;;;;;;5025953;27;106421;-57
2021/03/03 05:06:54;;;;;;;5.32;3.40;;;;;;;;;;5029376;27;105329;-56
2021/03/03 05:09:20;;;;;;;6.00;3.60;;;;;;;;;;5026863;27;105323;-57
2021/03/03 05:11:48;;;;;;;6.47;3.15;;;;;;;;;;5027256;27;105983;-56
2021/03/03 05:14:15;;;;;;;6.38;3.40;;;;;;;;;;5031567;27;106118;-56
2021/03/03 05:16:41;;;;;;;5.13;3.45;;;;;;;;;;5032676;27;117106;-55
2021/03/03 05:19:07;;;;;;;5.28;3.20;;;;;;;;;;5028006;27;105153;-58
2021/03/03 05:21:32;;;;;;;5.13;3.30;;;;;;;;;;5030268;27;105306;-55
2021/03/03 05:23:58;;;;;;;6.05;3.20;;;;;;;;;;5028575;27;105884;-56
2021/03/03 05:26:23;;;;;;;5.00;3.38;;;;;;;;;;5024125;27;105757;-56
2021/03/03 05:28:49;;;;;;;6.40;3.60;;;;;;;;;;5029192;27;105256;-56
2021/03/03 05:31:14;;;;;;;6.75;3.33;;;;;;;;;;5026483;27;105083;-57
2021/03/03 05:33:41;;;;;;;6.18;3.47;;;;;;;;;;5028388;27;105516;-56
2021/03/03 05:36:07;;;;;;;4.97;3.40;;;;;;;;;;5031799;27;105290;-57
2021/03/03 05:38:33;;;;;;;5.60;3.60;;;;;;;;;;5015233;27;107623;-57
2021/03/03 05:40:58;;;;;;;5.75;3.47;;;;;;;;;;5028072;27;105329;-57
2021/03/03 05:43:24;;;;;;;5.57;3.17;;;;;;;;;;5026281;27;105011;-57
2021/03/03 05:45:50;;;;;;;4.72;3.28;;;;;;;;;;5028328;27;106400;-57
2021/03/03 05:48:21;;;;;;;4.63;3.30;;;;;;;;;;5023754;27;105054;-56
2021/03/03 05:50:48;;;;;;;6.32;3.80;;;;;;;;;;5028291;27;105956;-57
2021/03/03 05:53:14;;;;;;;5.60;3.40;;;;;;;;;;5023151;27;105074;-59
2021/03/03 05:55:41;;;;;;;6.40;3.40;;;;;;;;;;5030554;27;105175;-57
2021/03/03 05:58:08;;;;;;;6.00;3.65;;;;;;;;;;5024338;27;105656;-57
2021/03/03 06:00:33;;;;;;;6.53;3.45;;;;;;;;;;5010960;27;106157;-56
2021/03/03 06:02:59;;;;;;;6.35;3.33;;;;;;;;;;5020769;27;106091;-57
2021/03/03 06:05:24;;;;;;;6.28;3.58;;;;;;;;;;5013053;27;106138;-55
2021/03/03 06:07:50;;;;;;;5.32;3.25;;;;;;;;;;5026800;27;105144;-57
2021/03/03 06:10:15;;;;;;;5.43;3.53;;;;;;;;;;5010337;27;106030;-56
2021/03/03 06:12:41;;;;;;;5.05;3.10;;;;;;;;;;5027831;27;104959;-56
2021/03/03 06:15:07;;;;;;;4.53;3.00;;;;;;;;;;5028622;27;105699;-55
2021/03/03 06:17:32;;;;;;;5.13;3.20;;;;;;;;;;5027495;27;106468;-57
2021/03/03 06:19:58;;;;;;;5.03;3.13;;;;;;;;;;5009782;27;105132;-57
2021/03/03 06:22:27;;;;;;;5.78;3.58;;;;;;;;;;5008785;27;106076;-54
2021/03/03 06:24:54;;;;;;;6.00;3.75;;;;;;;;;;4993844;27;106461;-56
2021/03/03 06:27:21;;;;;;;6.90;3.65;;;;;;;;;;5024535;27;105481;-57
2021/03/03 06:30:03;;;;;;;5.78;3.58;;;;;;;;;;5018474;27;107483;-57
2021/03/03 06:32:29;;;;;;;6.13;3.60;;;;;;;;;;5025941;27;105438;-56
2021/03/03 06:34:54;;;;;;;6.20;3.80;;;;;;;;;;5024396;27;105890;-56
2021/03/03 06:37:20;;;;;;;6.25;3.42;;;;;;;;;;5029191;27;105491;-57
2021/03/03 06:39:45;;;;;;;5.72;3.65;;;;;;;;;;5013446;27;105451;-57
2021/03/03 06:42:24;;;;;;;6.45;3.55;;;;;;;;;;5026730;27;106040;-57
2021/03/03 06:44:51;;;;;;;5.15;3.65;;;;;;;;;;5019823;27;105726;-57
2021/03/03 06:47:16;;;;;;;5.57;3.20;;;;;;;;;;5025732;27;106074;-57
2021/03/03 06:49:42;;;;;;;6.18;3.33;;;;;;;;;;5037429;27;105630;-57
2021/03/03 06:52:07;;;;;;;5.97;3.40;;;;;;;;;;5030413;27;107481;-59
2021/03/03 06:54:33;;;;;;;4.72;3.20;;;;;;;;;;4995674;27;105513;-56
2021/03/03 06:56:59;;;;;;;5.18;3.35;;;;;;;;;;5026754;27;105045;-56
2021/03/03 06:59:28;;;;;;;5.95;3.60;;;;;;;;;;5026163;27;105565;-57
2021/03/03 07:02:09;;;;;;;6.30;3.55;;;;;;;;;;5030169;27;105037;-55
2021/03/03 07:04:38;;;;;;;7.17;3.87;;;;;;;;;;5036128;27;106097;-57
2021/03/03 07:07:09;;;;;;;5.93;3.80;;;;;;;;;;5030064;27;105505;-57
2021/03/03 07:09:53;;;;;;;5.80;3.45;;;;;;;;;;5031401;27;107315;-55
2021/03/03 07:12:26;;;;;;;6.55;3.40;;;;;;;;;;5012074;27;108467;-56
2021/03/03 07:15:01;;;;;;;5.13;3.17;;;;;;;;;;5009639;27;105030;-56
2021/03/03 07:17:37;;;;;;;6.53;3.55;;;;;;;;;;5024880;27;105589;-54
2021/03/03 07:20:04;;;;;;;5.93;3.70;;;;;;;;;;5011479;27;105498;-55
2021/03/03 07:22:33;;;;;;;7.75;3.58;;;;;;;;;;5026747;27;105574;-56
2021/03/03 07:25:09;;;;;;;7.25;3.90;;;;;;;;;;5030696;27;105569;-55
2021/03/03 07:27:36;;;;;;;7.20;3.72;;;;;;;;;;4996999;27;105488;-55
2021/03/03 07:30:05;;;;;;;5.60;3.40;;;;;;;;;;5027270;27;105341;-54
2021/03/03 07:32:30;;;;;;;6.00;3.50;;;;;;;;;;5026460;27;106095;-55
2021/03/03 07:34:56;;;;;;;6.15;3.50;;;;;;;;;;5024920;27;105309;-57
2021/03/03 07:37:31;;;;;;;5.45;3.10;;;;;;;;;;5026167;27;105453;-57
2021/03/03 07:39:58;;;;;;;5.88;3.30;;;;;;;;;;5026928;27;105900;-56
2021/03/03 07:42:28;;;;;;;6.03;3.42;;;;;;;;;;5026843;27;105467;-56
2021/03/03 07:44:54;;;;;;;7.03;3.85;;;;;;;;;;5019216;27;105640;-56
2021/03/03 07:47:20;;;;;;;6.75;3.58;;;;;;;;;;5029119;27;105535;-56
2021/03/03 07:49:47;;;;;;;5.43;3.25;;;;;;;;;;5024122;27;105251;-57
2021/03/03 07:52:14;;;;;;;6.57;3.72;;;;;;;;;;5006902;27;105551;-56
2021/03/03 07:54:39;;;;;;;6.18;3.65;;;;;;;;;;5026508;27;104997;-57
2021/03/03 07:57:06;;;;;;;5.30;3.50;;;;;;;;;;5027886;27;106082;-57
2021/03/03 07:59:31;;;;;;;4.72;3.08;;;;;;;;;;5008032;27;105025;-56
2021/03/03 08:01:57;;;;;;;5.05;3.35;;;;;;;;;;5008534;27;105174;-57
2021/03/03 08:04:49;;;;;;;5.63;3.28;;;;;;;;;;5023532;27;104998;-56
2021/03/03 08:07:21;;;;;;;;;;;;;;;;;;5035307;27;105984;-56
2021/03/03 08:10:05;;;;;;;;;;;;;;;;;;5028209;27;106305;-56
2021/03/03 08:12:31;;;;;;;6.90;3.80;;;;;;;;;;5027213;27;105523;-56
2021/03/03 08:14:56;;;;;;;7.28;3.78;;;;;;;;;;5026889;27;105046;-56
2021/03/03 08:17:26;;;;;;;8.48;4.07;;;;;;;;;;5025544;27;106195;-57
2021/03/03 08:19:57;;;;;;;5.75;3.88;;;;;;;;;;5024684;27;104964;-56
2021/03/03 08:22:51;;;;;;;6.30;3.50;;;;;;;;;;5024066;27;105623;-57
2021/03/03 08:25:42;;;;;;;6.35;3.80;;;;;;;;;;5028715;27;105845;-56
2021/03/03 08:28:29;;;;;;;7.13;3.95;;;;;;;;;;5025134;27;105497;-56
2021/03/03 08:31:06;;;;;;;5.88;3.47;;;;;;;;;;5028610;27;105426;-56
2021/03/03 08:33:39;;;;;;;7.22;4.22;;;;;;;;;;5024312;27;105861;-56
2021/03/03 08:36:05;;;;;;;5.93;3.80;;;;;;;;;;5012591;27;105365;-55
2021/03/03 08:38:30;;;;;;;6.90;3.83;;;;;;;;;;5025911;27;105884;-57
2021/03/03 08:41:19;;;;;;;6.57;3.67;;;;;;;;;;5028112;27;105078;-56
2021/03/03 08:43:46;;;;;;;4.78;3.15;;;;;;;;;;5019265;27;105094;-56
2021/03/03 08:46:17;;;;;;;6.25;3.70;;;;;;;;;;5023586;27;105711;-55
2021/03/03 08:48:43;;;;;;;7.05;3.67;;;;;;;;;;5023227;27;105338;-57
2021/03/03 08:51:29;;;;;;;8.48;4.00;;;;;;;;;;5028516;27;105501;-58
2021/03/03 08:53:56;;;;;;;7.00;4.20;;;;;;;;;;5028881;27;105924;-56
2021/03/03 08:56:38;;;;;;;7.20;3.72;;;;;;;;;;5024447;27;105211;-55
2021/03/03 08:59:10;;;;;;;8.63;3.97;;;;;;;;;;5024044;27;106255;-57
2021/03/03 09:02:15;;;;;;;7.07;4.10;;;;;;;;;;5022591;27;105389;-58
2021/03/03 09:04:51;;;;;;;6.68;4.00;;;;;;;;;;5026270;27;105676;-54
2021/03/03 09:07:18;;;;;;;6.25;3.72;;;;;;;;;;5016682;27;105463;-55
2021/03/03 09:09:46;;;;;;;7.93;3.63;;;;;;;;;;5024594;27;108742;-57
2021/03/03 09:12:12;;;;;;;6.93;3.55;;;;;;;;;;5027199;27;105023;-54
2021/03/03 09:14:39;;;;;;;6.68;3.78;;;;;;;;;;5027058;27;105854;-53
2021/03/03 09:17:06;;;;;;;7.47;3.70;;;;;;;;;;5025780;27;105096;-51
2021/03/03 09:19:32;;;;;;;8.48;3.95;;;;;;;;;;5025317;27;104921;-52
2021/03/03 09:21:58;;;;;;;7.88;3.90;;;;;;;;;;5026179;27;105375;-52
2021/03/03 09:24:23;;;;;;;6.95;3.90;;;;;;;;;;5020319;27;105449;-52
2021/03/03 09:26:49;;;;;;;7.18;3.88;;;;;;;;;;4995981;27;105390;-51
2021/03/03 09:29:25;;;;;;;7.07;3.97;;;;;;;;;;5032900;27;107455;-54
2021/03/03 09:31:51;;;;;;;7.85;4.15;;;;;;;;;;5027052;27;105877;-52
2021/03/03 09:34:16;;;;;;;6.47;3.95;;;;;;;;;;5024544;27;105146;-54
2021/03/03 09:36:42;;;;;;;6.75;3.70;;;;;;;;;;5021126;27;105296;-53
2021/03/03 09:39:08;;;;;;;6.35;4.18;;;;;;;;;;5027715;27;105847;-53
2021/03/03 09:41:35;;;;;;;7.65;3.72;;;;;;;;;;5025311;27;105824;-52
2021/03/03 09:44:07;;;;;;;5.28;3.22;;;;;;;;;;5024874;27;105885;-51
2021/03/03 09:46:51;;;;;;;;;;;;;;;;;;5024792;27;105908;-57
2021/03/03 09:49:27;;;;;;;6.88;3.85;;;;;;;;;;5024070;27;105015;-51
2021/03/03 09:51:53;;;;;;;7.65;3.80;;;;;;;;;;5025010;27;105059;-51
2021/03/03 09:54:25;;;;;;;8.63;3.90;;;;;;;;;;5022294;27;105116;-55
2021/03/03 09:56:50;;;;;;;6.68;3.67;;;;;;;;;;5024516;27;105717;-52
2021/03/03 09:59:16;;;;;;;6.32;4.00;;;;;;;;;;5017713;27;105453;-52
2021/03/03 10:01:41;;;;;;;8.80;4.15;;;;;;;;;;5010526;27;106110;-54
2021/03/03 10:04:07;;;;;;;6.95;4.10;;;;;;;;;;5027999;27;105666;-52
2021/03/03 10:06:32;;;;;;;6.47;3.80;;;;;;;;;;4994437;27;110113;-56
2021/03/03 10:08:58;;;;;;;7.97;4.00;;;;;;;;;;5020251;27;106016;-53
2021/03/03 10:11:24;;;;;;;7.75;4.00;;;;;;;;;;5010761;27;106053;-55
2021/03/03 10:13:49;;;;;;;7.90;4.30;;;;;;;;;;5029215;27;105750;-56
2021/03/03 10:16:16;;;;;;;7.68;3.92;;;;;;;;;;5027385;27;105444;-55
2021/03/03 10:19:03;;;;;;;8.48;4.30;;;;;;;;;;5023476;27;105089;-53
2021/03/03 10:21:28;;;;;;;9.55;4.47;;;;;;;;;;5029933;27;105956;-56
2021/03/03 10:23:54;;;;;;;9.60;4.55;;;;;;;;;;5021313;27;105660;-54
2021/03/03 10:26:23;;;;;;;5.50;3.70;;;;;;;;;;5026155;27;105044;-56
2021/03/03 10:28:52;;;;;;;7.43;4.10;;;;;;;;;;5031060;27;105868;-57
2021/03/03 10:31:22;;;;;;;8.27;3.95;;;;;;;;;;5026116;27;105525;-53
2021/03/03 10:33:48;;;;;;;7.40;3.80;;;;;;;;;;5015208;27;105334;-54
2021/03/03 10:36:13;;;;;;;7.65;3.72;;;;;;;;;;5028814;27;105489;-55
2021/03/03 10:38:44;;;;;;;7.40;4.28;;;;;;;;;;5028452;27;105041;-55
2021/03/03 10:41:09;;;;;;;7.75;4.22;;;;;;;;;;5030794;27;105124;-57
2021/03/03 10:43:34;;;;;;;7.85;4.32;;;;;;;;;;5013181;27;105577;-53
2021/03/03 10:46:16;;;;;;;8.63;4.18;;;;;;;;;;5009933;27;105403;-55
2021/03/03 10:48:42;;;;;;;10.05;4.75;;;;;;;;;;5029169;27;105892;-52
2021/03/03 10:51:07;;;;;;;8.43;4.63;;;;;;;;;;5008636;27;105215;-56
2021/03/03 10:53:54;;;;;;;8.48;4.43;;;;;;;;;;5027947;27;105173;-55
2021/03/03 10:56:23;;;;;;;9.32;4.95;;;;;;;;;;5034337;27;106353;-55
2021/03/03 10:58:49;;;;;;;9.63;5.30;;;;;;;;;;5027911;27;105082;-56
2021/03/03 11:01:15;;;;;;;11.45;5.30;;;;;;;;;;5025547;27;105756;-55
2021/03/03 11:03:52;;;;;;;10.18;5.50;;;;;;;;;;5027668;27;105414;-56
2021/03/03 11:06:18;;;;;;;9.65;5.78;;;;;;;;;;5031019;27;105047;-56
2021/03/03 11:08:44;;;;;;;10.75;5.68;;;;;;;;;;5025192;27;105796;-56
2021/03/03 11:11:09;;;;;;;10.38;5.60;;;;;;;;;;5026884;27;105073;-53
2021/03/03 11:13:35;;;;;;;11.38;5.78;;;;;;;;;;5028104;27;105017;-55
2021/03/03 11:16:00;;;;;;;12.13;6.05;;;;;;;;;;5023866;27;105229;-55
2021/03/03 11:18:26;;;;;;;10.98;6.25;;;;;;;;;;5026970;27;105450;-54
2021/03/03 11:20:51;;;;;;;10.15;6.32;;;;;;;;;;5025143;27;105031;-55
2021/03/03 11:23:16;;;;;;;10.73;6.65;;;;;;;;;;5025768;27;104992;-55
2021/03/03 11:25:42;;;;;;;13.95;7.28;;;;;;;;;;5025954;27;105452;-53
2021/03/03 11:28:07;;;;;;;12.80;6.97;;;;;;;;;;5029483;27;105421;-55
2021/03/03 11:30:33;;;;;;;12.32;7.03;;;;;;;;;;5026372;27;105482;-55
2021/03/03 11:32:58;;;;;;;11.50;6.60;;;;;;;;;;5025946;27;105918;-54
2021/03/03 11:35:24;;;;;;;12.63;6.90;;;;;;;;;;5027607;27;106141;-55
2021/03/03 11:37:49;;;;;;;12.15;6.97;;;;;;;;;;5029960;27;105085;-56
2021/03/03 11:40:15;;;;;;;13.00;7.32;;;;;;;;;;5024775;27;105712;-56
2021/03/03 11:42:40;;;;;;;11.95;6.85;;;;;;;;;;5024215;27;106054;-55
2021/03/03 11:45:07;;;;;;;12.45;7.50;;;;;;;;;;5030455;27;105713;-56
2021/03/03 11:47:33;;;;;;;14.98;8.95;;;;;;;;;;5028197;27;106641;-62
2021/03/03 11:49:58;;;;;;;16.35;9.02;;;;;;;;;;5022087;27;105072;-55
2021/03/03 11:52:24;;;;;;;14.20;9.02;;;;;;;;;;5025624;27;105126;-55
2021/03/03 11:54:49;;;;;;;15.73;9.75;;;;;;;;;;5027665;27;105777;-53
2021/03/03 11:57:15;;;;;;;13.70;8.13;;;;;;;;;;5024177;27;105944;-53
2021/03/03 11:59:40;;;;;;;14.95;8.10;;;;;;;;;;5014892;27;105807;-53
2021/03/03 12:02:06;;;;;;;13.90;8.70;;;;;;;;;;5025402;27;105865;-50
2021/03/03 12:04:31;;;;;;;15.05;9.00;;;;;;;;;;5035488;27;105061;-51
2021/03/03 12:06:57;;;;;;;15.18;9.27;;;;;;;;;;5027052;27;106193;-50
2021/03/03 12:09:22;;;;;;;14.02;8.90;;;;;;;;;;5039003;27;108144;-53
2021/03/03 12:11:48;;;;;;;14.55;8.35;;;;;;;;;;5027357;27;105102;-54
2021/03/03 12:14:13;;;;;;;15.32;8.45;;;;;;;;;;5011353;27;109106;-51
2021/03/03 12:16:39;;;;;;;15.38;8.85;;;;;;;;;;5024118;27;105754;-52
2021/03/03 12:19:04;;;;;;;15.05;8.55;;;;;;;;;;5029032;27;105861;-55
2021/03/03 12:21:30;;;;;;;12.60;7.95;;;;;;;;;;5026156;27;106461;-51
2021/03/03 12:23:56;;;;;;;14.27;8.35;;;;;;;;;;5024253;27;105032;-51
2021/03/03 12:26:22;;;;;;;14.65;8.65;;;;;;;;;;5026820;27;105329;-53
2021/03/03 12:28:47;;;;;;;14.63;8.95;;;;;;;;;;5027291;27;105294;-51
2021/03/03 12:31:13;;;;;;;15.82;9.52;;;;;;;;;;5031680;27;105240;-53
2021/03/03 12:33:39;;;;;;;16.05;9.32;;;;;;;;;;5026777;27;106005;-52
2021/03/03 12:36:06;;;;;;;15.90;9.20;;;;;;;;;;5028222;27;106059;-51
2021/03/03 12:38:31;;;;;;;18.13;10.00;;;;;;;;;;5025112;27;105435;-54
2021/03/03 12:40:57;;;;;;;16.35;8.98;;;;;;;;;;5026535;27;105991;-51
2021/03/03 12:43:23;;;;;;;14.90;9.00;;;;;;;;;;5007043;27;105533;-50
2021/03/03 12:45:49;;;;;;;15.35;9.52;;;;;;;;;;5028256;27;105382;-52
2021/03/03 12:48:15;;;;;;;14.55;9.35;;;;;;;;;;5023917;27;104975;-52
2021/03/03 12:50:40;;;;;;;13.32;9.30;;;;;;;;;;5024841;27;105091;-52
2021/03/03 12:53:06;;;;;;;15.68;9.93;;;;;;;;;;5027366;27;105960;-52
2021/03/03 12:55:31;;;;;;;13.75;10.43;;;;;;;;;;5024945;27;105090;-53
2021/03/03 12:57:57;;;;;;;15.75;9.63;;;;;;;;;;5024315;27;105180;-53
2021/03/03 13:00:22;;;;;;;15.88;10.35;;;;;;;;;;5024771;27;105862;-53
2021/03/03 13:02:48;;;;;;;15.93;9.60;;;;;;;;;;5025011;27;105252;-50
2021/03/03 13:05:14;;;;;;;12.75;8.68;;;;;;;;;;5029937;27;105779;-53
2021/03/03 13:07:40;;;;;;;15.88;10.10;;;;;;;;;;5023368;27;105037;-54
2021/03/03 13:10:06;;;;;;;14.85;10.35;;;;;;;;;;5020461;27;105126;-56
2021/03/03 13:12:32;;;;;;;16.27;10.68;;;;;;;;;;5009064;27;105204;-55
2021/03/03 13:14:57;;;;;;;16.90;10.70;;;;;;;;;;5029206;27;105350;-54
2021/03/03 13:17:23;;;;;;;18.17;11.43;;;;;;;;;;5026799;27;106266;-54
2021/03/03 13:19:48;;;;;;;16.67;10.82;;;;;;;;;;5026117;27;105322;-55
2021/03/03 13:22:14;;;;;;;16.17;10.88;;;;;;;;;;5024224;27;105803;-55
2021/03/03 13:24:39;;;;;;;16.52;10.65;;;;;;;;;;5024534;27;105031;-55
2021/03/03 13:27:05;;;;;;;15.73;9.80;;;;;;;;;;5026050;27;105792;-52
2021/03/03 13:29:32;;;;;;;16.08;10.75;;;;;;;;;;5026838;27;105590;-56
2021/03/03 13:31:58;;;;;;;18.45;10.45;;;;;;;;;;5023852;27;105173;-55
2021/03/03 13:34:25;;;;;;;17.02;9.93;;;;;;;;;;5023813;27;105471;-52
2021/03/03 13:36:51;;;;;;;15.32;10.10;;;;;;;;;;5032007;27;105714;-53
2021/03/03 13:39:17;;;;;;;13.52;9.88;;;;;;;;;;5027732;27;105330;-54
2021/03/03 13:41:42;;;;;;;15.88;10.48;;;;;;;;;;5033251;27;105137;-52
2021/03/03 13:44:11;;;;;;;17.38;11.00;;;;;;;;;;5028876;27;105271;-55
2021/03/03 13:46:36;;;;;;;17.30;10.80;;;;;;;;;;5026874;27;105748;-55
2021/03/03 13:49:01;;;;;;;16.83;10.32;;;;;;;;;;5031834;27;105474;-55
2021/03/03 13:51:27;;;;;;;17.60;10.23;;;;;;;;;;5031933;27;105438;-59
2021/03/03 13:53:52;;;;;;;15.90;10.20;;;;;;;;;;5029565;27;106615;-52
2021/03/03 13:56:18;;;;;;;16.77;10.93;;;;;;;;;;5026095;27;105848;-56
2021/03/03 13:58:43;;;;;;;16.80;10.88;;;;;;;;;;5031581;27;105508;-55
2021/03/03 14:01:09;;;;;;;15.00;9.88;;;;;;;;;;5033679;27;105121;-54
2021/03/03 14:03:34;;;;;;;17.35;11.43;;;;;;;;;;5021303;27;105980;-57
2021/03/03 14:06:00;;;;;;;15.73;10.23;;;;;;;;;;5012931;27;105878;-57
2021/03/03 14:08:25;;;;;;;16.48;9.80;;;;;;;;;;5031389;27;105410;-55
2021/03/03 14:10:51;;;;;;;17.40;10.73;;;;;;;;;;5028588;27;105865;-55
2021/03/03 14:13:16;;;;;;;17.48;10.55;;;;;;;;;;5026548;27;105896;-56
2021/03/03 14:15:42;;;;;;;16.55;10.23;;;;;;;;;;5028887;27;105309;-56
2021/03/03 14:18:07;;;;;;;18.17;11.30;;;;;;;;;;5027896;27;105064;-55
2021/03/03 14:20:33;;;;;;;16.50;10.30;;;;;;;;;;5019594;27;105552;-56
2021/03/03 14:22:59;;;;;;;12.32;9.00;;;;;;;;;;4995568;27;105266;-54
2021/03/03 14:25:24;;;;;;;18.20;11.20;;;;;;;;;;5027175;27;105697;-57
2021/03/03 14:27:50;;;;;;;17.48;10.63;;;;;;;;;;5029142;27;105420;-56